sensor_id;sensor_type;location;lat;lon;timestamp;P1;durP1;ratioP1;P2;durP2;ratioP2
21089;SDS011;10703;51.020;6.128;2022-10-17T00:00:36;14.30;;;10.43;;
21089;SDS011;10703;51.020;6.128;2022-10-17T00:03:03;16.47;;;11.50;;
21089;SDS011;10703;51.020;6.128;2022-10-17T00:05:30;16.13;;;11.33;;
21089;SDS011;10703;51.020;6.128;2022-10-17T00:07:57;15.73;;;10.90;;
21089;SDS011;10703;51.020;6.128;2022-10-17T00:10:24;15.97;;;11.10;;
21089;SDS011;10703;51.020;6.128;2022-10-17T00:12:50;14.87;;;11.00;;
21089;SDS011;10703;51.020;6.128;2022-10-17T00:15:18;15.40;;;10.07;;
21089;SDS011;10703;51.020;6.128;2022-10-17T00:17:45;14.57;;;11.13;;
21089;SDS011;10703;51.020;6.128;2022-10-17T00:20:12;21.27;;;11.57;;
21089;SDS011;10703;51.020;6.128;2022-10-17T00:22:39;14.63;;;10.23;;
21089;SDS011;10703;51.020;6.128;2022-10-17T00:25:06;15.40;;;10.00;;
21089;SDS011;10703;51.020;6.128;2022-10-17T00:27:33;14.30;;;11.03;;
21089;SDS011;10703;51.020;6.128;2022-10-17T00:30:01;12.87;;;9.67;;
21089;SDS011;10703;51.020;6.128;2022-10-17T00:32:29;14.87;;;10.60;;
21089;SDS011;10703;51.020;6.128;2022-10-17T00:34:56;14.67;;;9.57;;
21089;SDS011;10703;51.020;6.128;2022-10-17T00:37:23;14.10;;;9.57;;
21089;SDS011;10703;51.020;6.128;2022-10-17T00:39:50;12.97;;;9.70;;
21089;SDS011;10703;51.020;6.128;2022-10-17T00:42:16;19.20;;;9.53;;
21089;SDS011;10703;51.020;6.128;2022-10-17T00:47:13;11.43;;;9.40;;
21089;SDS011;10703;51.020;6.128;2022-10-17T00:49:43;20.47;;;9.27;;
21089;SDS011;10703;51.020;6.128;2022-10-17T00:52:12;18.13;;;9.10;;
21089;SDS011;10703;51.020;6.128;2022-10-17T00:54:43;14.20;;;9.20;;
21089;SDS011;10703;51.020;6.128;2022-10-17T00:57:14;13.80;;;9.40;;
21089;SDS011;10703;51.020;6.128;2022-10-17T00:59:42;16.17;;;9.07;;
21089;SDS011;10703;51.020;6.128;2022-10-17T01:02:15;14.67;;;9.23;;
21089;SDS011;10703;51.020;6.128;2022-10-17T01:04:44;14.30;;;9.43;;
21089;SDS011;10703;51.020;6.128;2022-10-17T01:07:14;13.47;;;9.63;;
21089;SDS011;10703;51.020;6.128;2022-10-17T01:09:40;14.97;;;9.37;;
21089;SDS011;10703;51.020;6.128;2022-10-17T01:12:18;19.77;;;9.53;;
21089;SDS011;10703;51.020;6.128;2022-10-17T01:26:46;14.40;;;9.03;;
21089;SDS011;10703;51.020;6.128;2022-10-17T01:32:28;13.10;;;8.53;;
21089;SDS011;10703;51.020;6.128;2022-10-17T01:35:09;17.53;;;8.90;;
21089;SDS011;10703;51.020;6.128;2022-10-17T01:45:48;11.60;;;8.00;;
21089;SDS011;10703;51.020;6.128;2022-10-17T01:48:22;12.27;;;7.30;;
21089;SDS011;10703;51.020;6.128;2022-10-17T01:50:54;12.97;;;7.13;;
21089;SDS011;10703;51.020;6.128;2022-10-17T01:53:44;10.30;;;7.07;;
21089;SDS011;10703;51.020;6.128;2022-10-17T01:56:17;10.57;;;7.40;;
21089;SDS011;10703;51.020;6.128;2022-10-17T01:58:50;11.13;;;6.63;;
21089;SDS011;10703;51.020;6.128;2022-10-17T02:01:21;10.20;;;7.37;;
21089;SDS011;10703;51.020;6.128;2022-10-17T02:03:49;15.67;;;7.00;;
21089;SDS011;10703;51.020;6.128;2022-10-17T02:06:17;9.23;;;6.80;;
21089;SDS011;10703;51.020;6.128;2022-10-17T02:08:45;11.23;;;6.87;;
21089;SDS011;10703;51.020;6.128;2022-10-17T02:11:14;9.27;;;6.20;;
21089;SDS011;10703;51.020;6.128;2022-10-17T02:24:42;11.10;;;6.20;;
21089;SDS011;10703;51.020;6.128;2022-10-17T02:29:57;7.10;;;5.70;;
21089;SDS011;10703;51.020;6.128;2022-10-17T02:32:35;9.00;;;6.00;;
21089;SDS011;10703;51.020;6.128;2022-10-17T02:35:15;11.97;;;5.87;;
21089;SDS011;10703;51.020;6.128;2022-10-17T02:37:45;7.10;;;5.40;;
21089;SDS011;10703;51.020;6.128;2022-10-17T02:40:12;9.53;;;5.53;;
21089;SDS011;10703;51.020;6.128;2022-10-17T02:42:43;10.77;;;5.60;;
21089;SDS011;10703;51.020;6.128;2022-10-17T02:45:11;9.67;;;5.67;;
21089;SDS011;10703;51.020;6.128;2022-10-17T02:47:56;9.43;;;5.40;;
21089;SDS011;10703;51.020;6.128;2022-10-17T02:51:11;14.07;;;6.10;;
21089;SDS011;10703;51.020;6.128;2022-10-17T02:53:38;12.40;;;6.57;;
21089;SDS011;10703;51.020;6.128;2022-10-17T02:56:15;9.20;;;5.73;;
21089;SDS011;10703;51.020;6.128;2022-10-17T02:58:48;9.30;;;6.17;;
21089;SDS011;10703;51.020;6.128;2022-10-17T03:01:19;11.63;;;6.30;;
21089;SDS011;10703;51.020;6.128;2022-10-17T03:03:46;9.10;;;6.70;;
21089;SDS011;10703;51.020;6.128;2022-10-17T03:06:13;10.17;;;6.00;;
21089;SDS011;10703;51.020;6.128;2022-10-17T03:08:39;8.10;;;6.57;;
21089;SDS011;10703;51.020;6.128;2022-10-17T03:11:06;10.00;;;5.97;;
21089;SDS011;10703;51.020;6.128;2022-10-17T03:13:32;12.50;;;6.30;;
21089;SDS011;10703;51.020;6.128;2022-10-17T03:16:04;17.20;;;5.73;;
21089;SDS011;10703;51.020;6.128;2022-10-17T03:18:31;7.27;;;5.50;;
21089;SDS011;10703;51.020;6.128;2022-10-17T03:20:58;8.60;;;5.40;;
21089;SDS011;10703;51.020;6.128;2022-10-17T03:23:24;7.17;;;4.73;;
21089;SDS011;10703;51.020;6.128;2022-10-17T03:25:51;14.60;;;5.43;;
21089;SDS011;10703;51.020;6.128;2022-10-17T03:28:17;8.83;;;4.63;;
21089;SDS011;10703;51.020;6.128;2022-10-17T03:30:44;6.37;;;4.17;;
21089;SDS011;10703;51.020;6.128;2022-10-17T03:33:11;11.67;;;4.57;;
21089;SDS011;10703;51.020;6.128;2022-10-17T03:35:38;8.30;;;4.20;;
21089;SDS011;10703;51.020;6.128;2022-10-17T03:38:07;6.73;;;3.97;;
21089;SDS011;10703;51.020;6.128;2022-10-17T03:40:34;9.97;;;4.13;;
21089;SDS011;10703;51.020;6.128;2022-10-17T03:43:01;7.63;;;4.20;;
21089;SDS011;10703;51.020;6.128;2022-10-17T03:45:27;8.80;;;4.07;;
21089;SDS011;10703;51.020;6.128;2022-10-17T03:47:54;10.83;;;3.93;;
21089;SDS011;10703;51.020;6.128;2022-10-17T03:50:20;6.03;;;3.53;;
21089;SDS011;10703;51.020;6.128;2022-10-17T03:52:47;10.00;;;4.30;;
21089;SDS011;10703;51.020;6.128;2022-10-17T03:55:14;6.30;;;3.90;;
21089;SDS011;10703;51.020;6.128;2022-10-17T03:57:42;13.23;;;4.33;;
21089;SDS011;10703;51.020;6.128;2022-10-17T04:00:11;13.77;;;4.53;;
21089;SDS011;10703;51.020;6.128;2022-10-17T04:02:38;8.40;;;4.80;;
21089;SDS011;10703;51.020;6.128;2022-10-17T04:05:05;8.07;;;4.17;;
21089;SDS011;10703;51.020;6.128;2022-10-17T04:07:32;6.93;;;3.80;;
21089;SDS011;10703;51.020;6.128;2022-10-17T04:09:58;8.30;;;4.33;;
21089;SDS011;10703;51.020;6.128;2022-10-17T04:12:25;9.60;;;4.23;;
21089;SDS011;10703;51.020;6.128;2022-10-17T04:14:52;7.10;;;3.67;;
21089;SDS011;10703;51.020;6.128;2022-10-17T04:17:19;10.20;;;4.10;;
21089;SDS011;10703;51.020;6.128;2022-10-17T04:19:47;10.17;;;3.67;;
21089;SDS011;10703;51.020;6.128;2022-10-17T04:22:14;7.70;;;3.60;;
21089;SDS011;10703;51.020;6.128;2022-10-17T04:24:41;4.33;;;3.43;;
21089;SDS011;10703;51.020;6.128;2022-10-17T04:27:07;5.40;;;3.10;;
21089;SDS011;10703;51.020;6.128;2022-10-17T04:29:34;6.13;;;3.50;;
21089;SDS011;10703;51.020;6.128;2022-10-17T04:32:01;8.50;;;3.70;;
21089;SDS011;10703;51.020;6.128;2022-10-17T04:34:27;6.57;;;3.00;;
21089;SDS011;10703;51.020;6.128;2022-10-17T04:36:54;7.80;;;3.23;;
21089;SDS011;10703;51.020;6.128;2022-10-17T04:39:20;7.10;;;3.30;;
21089;SDS011;10703;51.020;6.128;2022-10-17T04:41:47;8.23;;;3.50;;
21089;SDS011;10703;51.020;6.128;2022-10-17T04:44:13;5.90;;;3.23;;
21089;SDS011;10703;51.020;6.128;2022-10-17T04:46:40;9.07;;;3.50;;
21089;SDS011;10703;51.020;6.128;2022-10-17T04:49:07;4.53;;;3.03;;
21089;SDS011;10703;51.020;6.128;2022-10-17T04:51:33;4.53;;;3.07;;
21089;SDS011;10703;51.020;6.128;2022-10-17T04:54:00;4.37;;;3.10;;
21089;SDS011;10703;51.020;6.128;2022-10-17T04:56:27;5.37;;;2.93;;
21089;SDS011;10703;51.020;6.128;2022-10-17T04:58:53;8.20;;;3.80;;
21089;SDS011;10703;51.020;6.128;2022-10-17T05:01:21;7.53;;;3.93;;
21089;SDS011;10703;51.020;6.128;2022-10-17T05:03:48;13.30;;;3.77;;
21089;SDS011;10703;51.020;6.128;2022-10-17T05:06:19;7.90;;;3.07;;
21089;SDS011;10703;51.020;6.128;2022-10-17T05:08:47;8.93;;;3.10;;
21089;SDS011;10703;51.020;6.128;2022-10-17T05:11:15;5.63;;;3.23;;
21089;SDS011;10703;51.020;6.128;2022-10-17T05:13:42;7.03;;;3.47;;
21089;SDS011;10703;51.020;6.128;2022-10-17T05:16:09;10.40;;;4.77;;
21089;SDS011;10703;51.020;6.128;2022-10-17T05:18:36;16.17;;;12.00;;
21089;SDS011;10703;51.020;6.128;2022-10-17T05:21:02;10.80;;;3.80;;
21089;SDS011;10703;51.020;6.128;2022-10-17T05:23:29;10.93;;;3.10;;
21089;SDS011;10703;51.020;6.128;2022-10-17T05:25:56;6.37;;;3.60;;
21089;SDS011;10703;51.020;6.128;2022-10-17T05:28:22;13.07;;;3.77;;
21089;SDS011;10703;51.020;6.128;2022-10-17T05:30:49;11.60;;;3.40;;
21089;SDS011;10703;51.020;6.128;2022-10-17T05:33:16;7.30;;;3.00;;
21089;SDS011;10703;51.020;6.128;2022-10-17T05:35:42;5.67;;;3.23;;
21089;SDS011;10703;51.020;6.128;2022-10-17T05:38:09;8.47;;;3.60;;
21089;SDS011;10703;51.020;6.128;2022-10-17T05:40:35;4.03;;;2.70;;
21089;SDS011;10703;51.020;6.128;2022-10-17T05:43:04;5.43;;;3.33;;
21089;SDS011;10703;51.020;6.128;2022-10-17T05:45:31;7.67;;;3.17;;
21089;SDS011;10703;51.020;6.128;2022-10-17T05:47:57;6.53;;;3.00;;
21089;SDS011;10703;51.020;6.128;2022-10-17T05:50:24;8.13;;;3.37;;
21089;SDS011;10703;51.020;6.128;2022-10-17T05:52:54;5.23;;;3.17;;
21089;SDS011;10703;51.020;6.128;2022-10-17T05:55:21;5.13;;;3.17;;
21089;SDS011;10703;51.020;6.128;2022-10-17T05:57:48;8.70;;;2.87;;
21089;SDS011;10703;51.020;6.128;2022-10-17T06:00:15;8.37;;;2.93;;
21089;SDS011;10703;51.020;6.128;2022-10-17T06:02:42;6.97;;;2.90;;
21089;SDS011;10703;51.020;6.128;2022-10-17T06:05:12;8.43;;;2.77;;
21089;SDS011;10703;51.020;6.128;2022-10-17T06:07:39;4.73;;;2.90;;
21089;SDS011;10703;51.020;6.128;2022-10-17T06:10:06;6.83;;;3.20;;
21089;SDS011;10703;51.020;6.128;2022-10-17T06:12:33;5.43;;;3.07;;
21089;SDS011;10703;51.020;6.128;2022-10-17T06:15:00;6.63;;;2.87;;
21089;SDS011;10703;51.020;6.128;2022-10-17T06:17:26;9.20;;;3.07;;
21089;SDS011;10703;51.020;6.128;2022-10-17T06:19:55;9.03;;;2.93;;
21089;SDS011;10703;51.020;6.128;2022-10-17T06:22:22;6.97;;;3.10;;
21089;SDS011;10703;51.020;6.128;2022-10-17T06:24:49;10.70;;;3.83;;
21089;SDS011;10703;51.020;6.128;2022-10-17T06:27:17;14.30;;;3.30;;
21089;SDS011;10703;51.020;6.128;2022-10-17T06:29:45;4.97;;;2.80;;
21089;SDS011;10703;51.020;6.128;2022-10-17T06:32:12;8.13;;;2.90;;
21089;SDS011;10703;51.020;6.128;2022-10-17T06:34:40;7.47;;;3.47;;
21089;SDS011;10703;51.020;6.128;2022-10-17T06:37:07;5.73;;;2.97;;
21089;SDS011;10703;51.020;6.128;2022-10-17T06:39:34;7.83;;;3.10;;
21089;SDS011;10703;51.020;6.128;2022-10-17T06:42:01;12.63;;;3.20;;
21089;SDS011;10703;51.020;6.128;2022-10-17T06:44:29;7.90;;;2.77;;
21089;SDS011;10703;51.020;6.128;2022-10-17T06:46:57;7.90;;;2.80;;
21089;SDS011;10703;51.020;6.128;2022-10-17T06:49:24;7.57;;;2.83;;
21089;SDS011;10703;51.020;6.128;2022-10-17T06:51:51;10.43;;;2.63;;
21089;SDS011;10703;51.020;6.128;2022-10-17T06:54:18;12.27;;;3.30;;
21089;SDS011;10703;51.020;6.128;2022-10-17T06:56:45;8.53;;;2.70;;
21089;SDS011;10703;51.020;6.128;2022-10-17T06:59:12;5.63;;;2.90;;
21089;SDS011;10703;51.020;6.128;2022-10-17T07:01:40;9.23;;;3.00;;
21089;SDS011;10703;51.020;6.128;2022-10-17T07:04:12;11.87;;;3.57;;
21089;SDS011;10703;51.020;6.128;2022-10-17T07:06:38;7.70;;;2.80;;
21089;SDS011;10703;51.020;6.128;2022-10-17T07:09:05;9.00;;;3.10;;
21089;SDS011;10703;51.020;6.128;2022-10-17T07:11:32;9.03;;;3.00;;
21089;SDS011;10703;51.020;6.128;2022-10-17T07:14:00;10.17;;;3.03;;
21089;SDS011;10703;51.020;6.128;2022-10-17T07:16:27;8.47;;;2.53;;
21089;SDS011;10703;51.020;6.128;2022-10-17T07:18:54;5.17;;;2.60;;
21089;SDS011;10703;51.020;6.128;2022-10-17T07:21:20;6.37;;;3.00;;
21089;SDS011;10703;51.020;6.128;2022-10-17T07:23:47;7.03;;;3.23;;
21089;SDS011;10703;51.020;6.128;2022-10-17T07:26:14;10.53;;;2.83;;
21089;SDS011;10703;51.020;6.128;2022-10-17T07:28:42;13.57;;;3.07;;
21089;SDS011;10703;51.020;6.128;2022-10-17T07:31:12;4.20;;;2.73;;
21089;SDS011;10703;51.020;6.128;2022-10-17T07:33:40;7.97;;;3.20;;
21089;SDS011;10703;51.020;6.128;2022-10-17T07:36:07;12.63;;;2.53;;
21089;SDS011;10703;51.020;6.128;2022-10-17T07:38:35;10.83;;;2.77;;
21089;SDS011;10703;51.020;6.128;2022-10-17T07:41:02;13.23;;;2.57;;
21089;SDS011;10703;51.020;6.128;2022-10-17T07:43:31;7.60;;;2.90;;
21089;SDS011;10703;51.020;6.128;2022-10-17T07:45:59;7.50;;;2.70;;
21089;SDS011;10703;51.020;6.128;2022-10-17T07:48:26;10.70;;;2.80;;
21089;SDS011;10703;51.020;6.128;2022-10-17T07:50:53;9.83;;;2.80;;
21089;SDS011;10703;51.020;6.128;2022-10-17T07:53:20;6.27;;;2.60;;
21089;SDS011;10703;51.020;6.128;2022-10-17T07:55:46;12.83;;;2.77;;
21089;SDS011;10703;51.020;6.128;2022-10-17T07:58:14;5.23;;;2.20;;
21089;SDS011;10703;51.020;6.128;2022-10-17T08:00:41;5.73;;;2.53;;
21089;SDS011;10703;51.020;6.128;2022-10-17T08:03:08;4.53;;;2.20;;
21089;SDS011;10703;51.020;6.128;2022-10-17T08:05:35;7.97;;;2.20;;
21089;SDS011;10703;51.020;6.128;2022-10-17T08:08:02;6.77;;;2.20;;
21089;SDS011;10703;51.020;6.128;2022-10-17T08:10:29;4.23;;;2.20;;
21089;SDS011;10703;51.020;6.128;2022-10-17T08:12:56;2.83;;;1.73;;
21089;SDS011;10703;51.020;6.128;2022-10-17T08:15:24;6.00;;;2.43;;
21089;SDS011;10703;51.020;6.128;2022-10-17T08:17:57;3.33;;;1.83;;
21089;SDS011;10703;51.020;6.128;2022-10-17T08:20:24;5.57;;;1.93;;
21089;SDS011;10703;51.020;6.128;2022-10-17T08:22:55;5.30;;;2.00;;
21089;SDS011;10703;51.020;6.128;2022-10-17T08:25:22;5.90;;;2.30;;
21089;SDS011;10703;51.020;6.128;2022-10-17T08:27:49;5.70;;;2.13;;
21089;SDS011;10703;51.020;6.128;2022-10-17T08:30:15;7.27;;;2.73;;
21089;SDS011;10703;51.020;6.128;2022-10-17T08:32:42;4.57;;;2.63;;
21089;SDS011;10703;51.020;6.128;2022-10-17T08:35:09;3.50;;;2.23;;
21089;SDS011;10703;51.020;6.128;2022-10-17T08:37:36;4.67;;;2.33;;
21089;SDS011;10703;51.020;6.128;2022-10-17T08:40:02;8.37;;;2.43;;
21089;SDS011;10703;51.020;6.128;2022-10-17T08:42:37;4.80;;;2.20;;
21089;SDS011;10703;51.020;6.128;2022-10-17T08:45:22;6.07;;;2.23;;
21089;SDS011;10703;51.020;6.128;2022-10-17T08:47:59;4.83;;;2.70;;
21089;SDS011;10703;51.020;6.128;2022-10-17T08:50:31;8.15;;;2.22;;
21089;SDS011;10703;51.020;6.128;2022-10-17T08:53:52;3.10;;;1.90;;
21089;SDS011;10703;51.020;6.128;2022-10-17T08:56:20;5.45;;;2.70;;
21089;SDS011;10703;51.020;6.128;2022-10-17T08:59:13;4.53;;;2.30;;
21089;SDS011;10703;51.020;6.128;2022-10-17T09:02:05;3.30;;;1.92;;
21089;SDS011;10703;51.020;6.128;2022-10-17T09:13:23;3.33;;;1.87;;
21089;SDS011;10703;51.020;6.128;2022-10-17T09:16:05;3.70;;;2.03;;
21089;SDS011;10703;51.020;6.128;2022-10-17T09:18:46;8.23;;;2.50;;
21089;SDS011;10703;51.020;6.128;2022-10-17T09:21:24;7.13;;;2.25;;
21089;SDS011;10703;51.020;6.128;2022-10-17T09:23:57;7.10;;;2.13;;
21089;SDS011;10703;51.020;6.128;2022-10-17T09:26:40;6.18;;;2.30;;
21089;SDS011;10703;51.020;6.128;2022-10-17T09:29:30;4.15;;;2.13;;
21089;SDS011;10703;51.020;6.128;2022-10-17T09:32:03;3.37;;;1.60;;
21089;SDS011;10703;51.020;6.128;2022-10-17T09:34:42;4.77;;;2.50;;
21089;SDS011;10703;51.020;6.128;2022-10-17T09:37:12;5.15;;;2.20;;
21089;SDS011;10703;51.020;6.128;2022-10-17T09:39:41;4.40;;;1.93;;
21089;SDS011;10703;51.020;6.128;2022-10-17T09:42:09;4.77;;;2.03;;
21089;SDS011;10703;51.020;6.128;2022-10-17T09:44:46;3.80;;;2.13;;
21089;SDS011;10703;51.020;6.128;2022-10-17T09:47:23;4.47;;;2.20;;
21089;SDS011;10703;51.020;6.128;2022-10-17T09:49:51;6.47;;;2.50;;
21089;SDS011;10703;51.020;6.128;2022-10-17T09:52:20;6.77;;;2.27;;
21089;SDS011;10703;51.020;6.128;2022-10-17T09:54:48;7.63;;;2.43;;
21089;SDS011;10703;51.020;6.128;2022-10-17T09:57:17;7.03;;;3.37;;
21089;SDS011;10703;51.020;6.128;2022-10-17T09:59:47;3.63;;;2.20;;
21089;SDS011;10703;51.020;6.128;2022-10-17T10:02:25;5.30;;;2.00;;
21089;SDS011;10703;51.020;6.128;2022-10-17T10:07:33;8.73;;;2.30;;
21089;SDS011;10703;51.020;6.128;2022-10-17T10:10:03;5.53;;;1.90;;
21089;SDS011;10703;51.020;6.128;2022-10-17T10:12:33;5.10;;;2.30;;
21089;SDS011;10703;51.020;6.128;2022-10-17T10:15:06;7.53;;;2.00;;
21089;SDS011;10703;51.020;6.128;2022-10-17T10:17:58;2.77;;;1.87;;
21089;SDS011;10703;51.020;6.128;2022-10-17T10:20:35;6.78;;;2.08;;
21089;SDS011;10703;51.020;6.128;2022-10-17T10:23:08;7.80;;;2.40;;
21089;SDS011;10703;51.020;6.128;2022-10-17T10:25:51;8.40;;;2.25;;
21089;SDS011;10703;51.020;6.128;2022-10-17T10:28:32;9.10;;;2.30;;
21089;SDS011;10703;51.020;6.128;2022-10-17T10:31:04;5.07;;;2.43;;
21089;SDS011;10703;51.020;6.128;2022-10-17T10:33:34;8.33;;;2.20;;
21089;SDS011;10703;51.020;6.128;2022-10-17T10:36:07;5.43;;;2.50;;
21089;SDS011;10703;51.020;6.128;2022-10-17T10:38:34;5.53;;;2.53;;
21089;SDS011;10703;51.020;6.128;2022-10-17T10:41:06;6.07;;;2.20;;
21089;SDS011;10703;51.020;6.128;2022-10-17T10:43:35;10.90;;;2.60;;
21089;SDS011;10703;51.020;6.128;2022-10-17T10:46:21;4.70;;;2.23;;
21089;SDS011;10703;51.020;6.128;2022-10-17T10:48:54;5.77;;;2.50;;
21089;SDS011;10703;51.020;6.128;2022-10-17T10:51:26;8.03;;;2.77;;
21089;SDS011;10703;51.020;6.128;2022-10-17T10:54:21;6.87;;;2.47;;
21089;SDS011;10703;51.020;6.128;2022-10-17T10:56:57;6.90;;;2.50;;
21089;SDS011;10703;51.020;6.128;2022-10-17T11:02:53;8.47;;;2.40;;
21089;SDS011;10703;51.020;6.128;2022-10-17T11:05:43;10.57;;;3.30;;
21089;SDS011;10703;51.020;6.128;2022-10-17T11:08:18;9.70;;;2.22;;
21089;SDS011;10703;51.020;6.128;2022-10-17T11:13:58;6.43;;;2.00;;
21089;SDS011;10703;51.020;6.128;2022-10-17T11:16:39;12.68;;;2.58;;
21089;SDS011;10703;51.020;6.128;2022-10-17T11:21:47;6.35;;;2.10;;
21089;SDS011;10703;51.020;6.128;2022-10-17T11:24:34;8.07;;;2.33;;
21089;SDS011;10703;51.020;6.128;2022-10-17T11:27:09;11.18;;;2.83;;
21089;SDS011;10703;51.020;6.128;2022-10-17T11:29:37;7.05;;;2.13;;
21089;SDS011;10703;51.020;6.128;2022-10-17T11:32:10;6.22;;;2.22;;
21089;SDS011;10703;51.020;6.128;2022-10-17T11:34:45;5.38;;;2.35;;
21089;SDS011;10703;51.020;6.128;2022-10-17T11:37:23;8.35;;;2.10;;
21089;SDS011;10703;51.020;6.128;2022-10-17T11:39:58;7.10;;;2.08;;
21089;SDS011;10703;51.020;6.128;2022-10-17T11:42:38;8.05;;;2.35;;
21089;SDS011;10703;51.020;6.128;2022-10-17T11:45:19;6.88;;;2.13;;
21089;SDS011;10703;51.020;6.128;2022-10-17T11:47:56;12.10;;;2.22;;
21089;SDS011;10703;51.020;6.128;2022-10-17T11:50:34;6.80;;;2.10;;
21089;SDS011;10703;51.020;6.128;2022-10-17T11:53:28;7.20;;;2.08;;
21089;SDS011;10703;51.020;6.128;2022-10-17T11:56:00;4.10;;;1.88;;
21089;SDS011;10703;51.020;6.128;2022-10-17T11:58:35;4.88;;;1.90;;
21089;SDS011;10703;51.020;6.128;2022-10-17T12:01:26;7.03;;;1.90;;
21089;SDS011;10703;51.020;6.128;2022-10-17T12:07:16;4.97;;;2.08;;
21089;SDS011;10703;51.020;6.128;2022-10-17T12:09:45;4.77;;;2.10;;
21089;SDS011;10703;51.020;6.128;2022-10-17T12:12:23;7.47;;;1.40;;
21089;SDS011;10703;51.020;6.128;2022-10-17T12:14:53;6.70;;;1.75;;
21089;SDS011;10703;51.020;6.128;2022-10-17T12:17:43;8.85;;;2.03;;
21089;SDS011;10703;51.020;6.128;2022-10-17T12:20:31;7.10;;;2.05;;
21089;SDS011;10703;51.020;6.128;2022-10-17T12:25:30;9.13;;;1.98;;
21089;SDS011;10703;51.020;6.128;2022-10-17T12:28:02;7.43;;;1.90;;
21089;SDS011;10703;51.020;6.128;2022-10-17T12:30:32;5.35;;;1.90;;
21089;SDS011;10703;51.020;6.128;2022-10-17T12:33:01;4.85;;;1.42;;
21089;SDS011;10703;51.020;6.128;2022-10-17T12:35:47;6.13;;;2.63;;
21089;SDS011;10703;51.020;6.128;2022-10-17T12:53:48;7.10;;;1.92;;
21089;SDS011;10703;51.020;6.128;2022-10-17T12:59:05;10.93;;;2.40;;
21089;SDS011;10703;51.020;6.128;2022-10-17T13:01:37;6.40;;;1.93;;
21089;SDS011;10703;51.020;6.128;2022-10-17T13:04:07;8.77;;;1.97;;
21089;SDS011;10703;51.020;6.128;2022-10-17T13:06:37;4.17;;;2.43;;
21089;SDS011;10703;51.020;6.128;2022-10-17T13:09:42;8.67;;;2.33;;
21089;SDS011;10703;51.020;6.128;2022-10-17T13:12:04;4.30;;;1.77;;
21089;SDS011;10703;51.020;6.128;2022-10-17T13:14:38;9.20;;;2.53;;
21089;SDS011;10703;51.020;6.128;2022-10-17T13:17:27;7.97;;;2.43;;
21089;SDS011;10703;51.020;6.128;2022-10-17T13:19:55;7.77;;;2.13;;
21089;SDS011;10703;51.020;6.128;2022-10-17T13:22:24;6.37;;;2.20;;
21089;SDS011;10703;51.020;6.128;2022-10-17T13:25:03;6.23;;;2.20;;
21089;SDS011;10703;51.020;6.128;2022-10-17T13:27:34;8.47;;;2.10;;
21089;SDS011;10703;51.020;6.128;2022-10-17T13:30:16;7.63;;;2.42;;
21089;SDS011;10703;51.020;6.128;2022-10-17T13:32:57;5.20;;;2.50;;
21089;SDS011;10703;51.020;6.128;2022-10-17T13:35:26;11.50;;;2.38;;
21089;SDS011;10703;51.020;6.128;2022-10-17T13:38:24;9.48;;;2.60;;
21089;SDS011;10703;51.020;6.128;2022-10-17T13:40:53;7.37;;;2.60;;
21089;SDS011;10703;51.020;6.128;2022-10-17T13:43:36;9.27;;;2.47;;
21089;SDS011;10703;51.020;6.128;2022-10-17T13:46:03;4.65;;;2.08;;
21089;SDS011;10703;51.020;6.128;2022-10-17T13:48:51;6.97;;;2.08;;
21089;SDS011;10703;51.020;6.128;2022-10-17T13:51:18;10.47;;;2.27;;
21089;SDS011;10703;51.020;6.128;2022-10-17T13:53:45;9.13;;;2.50;;
21089;SDS011;10703;51.020;6.128;2022-10-17T13:58:56;6.85;;;2.33;;
21089;SDS011;10703;51.020;6.128;2022-10-17T14:01:25;11.27;;;2.28;;
21089;SDS011;10703;51.020;6.128;2022-10-17T14:03:53;8.27;;;2.37;;
21089;SDS011;10703;51.020;6.128;2022-10-17T14:06:33;7.80;;;2.20;;
21089;SDS011;10703;51.020;6.128;2022-10-17T14:11:45;8.93;;;2.30;;
21089;SDS011;10703;51.020;6.128;2022-10-17T14:14:23;9.93;;;2.30;;
21089;SDS011;10703;51.020;6.128;2022-10-17T14:16:51;7.27;;;2.50;;
21089;SDS011;10703;51.020;6.128;2022-10-17T14:19:31;6.83;;;2.53;;
21089;SDS011;10703;51.020;6.128;2022-10-17T14:22:13;5.80;;;2.90;;
21089;SDS011;10703;51.020;6.128;2022-10-17T14:25:00;9.27;;;3.10;;
21089;SDS011;10703;51.020;6.128;2022-10-17T14:27:32;4.73;;;2.43;;
21089;SDS011;10703;51.020;6.128;2022-10-17T14:30:06;3.67;;;2.30;;
21089;SDS011;10703;51.020;6.128;2022-10-17T14:33:18;6.13;;;2.80;;
21089;SDS011;10703;51.020;6.128;2022-10-17T14:35:53;5.67;;;2.67;;
21089;SDS011;10703;51.020;6.128;2022-10-17T14:38:22;8.93;;;2.90;;
21089;SDS011;10703;51.020;6.128;2022-10-17T14:40:54;7.23;;;2.80;;
21089;SDS011;10703;51.020;6.128;2022-10-17T14:43:51;6.23;;;3.30;;
21089;SDS011;10703;51.020;6.128;2022-10-17T14:46:19;8.00;;;3.20;;
21089;SDS011;10703;51.020;6.128;2022-10-17T14:48:47;8.67;;;3.27;;
21089;SDS011;10703;51.020;6.128;2022-10-17T14:51:17;6.90;;;3.50;;
21089;SDS011;10703;51.020;6.128;2022-10-17T14:54:01;7.60;;;3.37;;
21089;SDS011;10703;51.020;6.128;2022-10-17T14:56:47;5.13;;;3.00;;
21089;SDS011;10703;51.020;6.128;2022-10-17T14:59:16;8.73;;;3.80;;
21089;SDS011;10703;51.020;6.128;2022-10-17T15:02:07;12.43;;;3.27;;
21089;SDS011;10703;51.020;6.128;2022-10-17T15:04:34;7.40;;;3.93;;
21089;SDS011;10703;51.020;6.128;2022-10-17T15:07:01;10.23;;;3.90;;
21089;SDS011;10703;51.020;6.128;2022-10-17T15:09:28;11.63;;;3.93;;
21089;SDS011;10703;51.020;6.128;2022-10-17T15:11:55;6.97;;;4.17;;
21089;SDS011;10703;51.020;6.128;2022-10-17T15:14:27;7.03;;;4.27;;
21089;SDS011;10703;51.020;6.128;2022-10-17T15:16:54;10.73;;;4.07;;
21089;SDS011;10703;51.020;6.128;2022-10-17T15:19:21;8.40;;;4.50;;
21089;SDS011;10703;51.020;6.128;2022-10-17T15:21:47;9.03;;;3.93;;
21089;SDS011;10703;51.020;6.128;2022-10-17T15:24:14;8.60;;;4.03;;
21089;SDS011;10703;51.020;6.128;2022-10-17T15:26:41;11.37;;;4.93;;
21089;SDS011;10703;51.020;6.128;2022-10-17T15:29:09;10.13;;;4.07;;
21089;SDS011;10703;51.020;6.128;2022-10-17T15:31:40;6.97;;;4.00;;
21089;SDS011;10703;51.020;6.128;2022-10-17T15:34:06;11.07;;;4.30;;
21089;SDS011;10703;51.020;6.128;2022-10-17T15:36:35;5.87;;;3.80;;
21089;SDS011;10703;51.020;6.128;2022-10-17T15:39:13;9.43;;;3.87;;
21089;SDS011;10703;51.020;6.128;2022-10-17T15:41:39;5.60;;;3.20;;
21089;SDS011;10703;51.020;6.128;2022-10-17T15:44:06;8.77;;;4.20;;
21089;SDS011;10703;51.020;6.128;2022-10-17T15:46:33;4.93;;;3.40;;
21089;SDS011;10703;51.020;6.128;2022-10-17T15:49:02;7.40;;;3.80;;
21089;SDS011;10703;51.020;6.128;2022-10-17T15:51:32;7.77;;;3.73;;
21089;SDS011;10703;51.020;6.128;2022-10-17T15:53:59;6.80;;;3.40;;
21089;SDS011;10703;51.020;6.128;2022-10-17T15:56:27;2.70;;;1.70;;
21089;SDS011;10703;51.020;6.128;2022-10-17T15:59:03;2.80;;;1.57;;
21089;SDS011;10703;51.020;6.128;2022-10-17T16:01:32;2.27;;;1.70;;
21089;SDS011;10703;51.020;6.128;2022-10-17T16:04:00;7.60;;;2.27;;
21089;SDS011;10703;51.020;6.128;2022-10-17T16:06:27;5.13;;;1.97;;
21089;SDS011;10703;51.020;6.128;2022-10-17T16:08:54;6.03;;;2.27;;
21089;SDS011;10703;51.020;6.128;2022-10-17T16:11:25;6.00;;;2.90;;
21089;SDS011;10703;51.020;6.128;2022-10-17T16:13:59;4.83;;;2.57;;
21089;SDS011;10703;51.020;6.128;2022-10-17T16:16:27;2.63;;;2.10;;
21089;SDS011;10703;51.020;6.128;2022-10-17T16:18:54;10.40;;;2.90;;
21089;SDS011;10703;51.020;6.128;2022-10-17T16:21:25;6.70;;;2.80;;
21089;SDS011;10703;51.020;6.128;2022-10-17T16:23:57;6.83;;;3.10;;
21089;SDS011;10703;51.020;6.128;2022-10-17T16:26:24;7.17;;;3.43;;
21089;SDS011;10703;51.020;6.128;2022-10-17T16:28:51;6.80;;;3.50;;
21089;SDS011;10703;51.020;6.128;2022-10-17T16:31:21;12.00;;;4.37;;
21089;SDS011;10703;51.020;6.128;2022-10-17T16:33:49;9.90;;;4.50;;
21089;SDS011;10703;51.020;6.128;2022-10-17T16:36:17;14.53;;;5.33;;